Terminal Aerodrome Forecast
Issued by NWS Shreveport, LA

Home | Current Version | Previous Version | Text Only | Print | Product List | Glossary On
Versions: 1 2 3 4 5 6 7 8 9 10 11 12 13 14 15 16 17 18 19 20 21
267
FTUS44 KSHV 240522
TAFLFK
TAF
KLFK 240522Z 2406/2506 00000KT 5SM BR SKC
      TEMPO 2408/2412 1/4SM FG VV001
     FM241200 00000KT 1/4SM FG VV001
      TEMPO 2412/2415 P6SM NSW BKN005
     FM241500 14005KT P6SM BKN008
     FM241700 13006KT P6SM SCT025 SCT035
     FM250000 11004KT P6SM SCT050=

USA.gov is the U.S. government's official web portal to all federal, state and local government web resources and services.